createdAt,value
2019-05-05T00:00:56.109Z,-1.23
2019-05-05T00:02:50.437Z,-1.27
2019-05-05T00:04:45.506Z,-1.28
2019-05-05T00:06:21.068Z,-1.29
2019-05-05T00:07:56.253Z,-1.33
2019-05-05T00:09:31.709Z,-1.28
2019-05-05T00:11:29.229Z,-1.25
2019-05-05T00:13:17.266Z,-1.22
2019-05-05T00:15:26.822Z,-1.24
2019-05-05T00:17:10.399Z,-1.26
2019-05-05T00:18:48.458Z,-1.27
2019-05-05T00:20:27.804Z,-1.32
2019-05-05T00:22:04.533Z,-1.38
2019-05-05T00:23:41.961Z,-1.49
2019-05-05T00:25:18.235Z,-1.56
2019-05-05T00:26:55.312Z,-1.59
2019-05-05T00:28:32.211Z,-1.63
2019-05-05T00:30:26.026Z,-1.63
2019-05-05T00:32:01.721Z,-1.62
2019-05-05T00:33:39.342Z,-1.69
2019-05-05T00:35:14.934Z,-1.62
2019-05-05T00:36:50.891Z,-1.60
2019-05-05T00:38:28.227Z,-1.58
2019-05-05T00:40:04.964Z,-1.58
2019-05-05T00:41:40.492Z,-1.59
2019-05-05T00:43:15.812Z,-1.55
2019-05-05T00:44:51.652Z,-1.66
2019-05-05T00:46:46.047Z,-1.73
2019-05-05T00:48:27.486Z,-1.68
2019-05-05T00:50:02.727Z,-1.73
2019-05-05T00:51:39.066Z,-1.61
2019-05-05T00:53:14.857Z,-1.66
2019-05-05T00:54:50.352Z,-1.59
2019-05-05T00:56:26.066Z,-1.56
2019-05-05T00:58:01.448Z,-1.53
2019-05-05T00:59:36.708Z,-1.53
2019-05-05T01:01:35.644Z,-1.63
2019-05-05T01:03:11.914Z,-1.71
2019-05-05T01:05:11.925Z,-1.76
2019-05-05T01:06:47.575Z,-1.82
2019-05-05T01:08:25.743Z,-1.91
2019-05-05T01:10:01.066Z,-1.98
2019-05-05T01:11:38.409Z,-2.03
2019-05-05T01:13:15.490Z,-2.09
2019-05-05T01:14:50.693Z,-2.14
2019-05-05T01:16:26.956Z,-2.20
2019-05-05T01:18:04.255Z,-2.21
2019-05-05T01:19:41.400Z,-2.25
2019-05-05T01:21:16.700Z,-2.30
2019-05-05T01:22:52.139Z,-2.30
2019-05-05T01:24:28.527Z,-2.31
2019-05-05T01:26:05.127Z,-2.33
2019-05-05T01:27:45.276Z,-2.31
2019-05-05T01:29:20.661Z,-2.28
2019-05-05T01:31:02.512Z,-2.24
2019-05-05T01:32:41.063Z,-2.25
2019-05-05T01:34:24.185Z,-2.30
2019-05-05T01:35:59.670Z,-2.27
2019-05-05T01:37:50.233Z,-2.29
2019-05-05T01:39:45.231Z,-2.35
2019-05-05T01:41:51.584Z,-2.40
2019-05-05T01:43:26.884Z,-2.46
2019-05-05T01:45:07.053Z,-2.50
2019-05-05T01:46:44.544Z,-2.50
2019-05-05T01:48:24.817Z,-2.50
2019-05-05T01:50:00.047Z,-2.52
2019-05-05T01:51:35.697Z,-2.54
2019-05-05T01:53:15.246Z,-2.53
2019-05-05T01:54:50.205Z,-2.57
2019-05-05T01:56:25.354Z,-2.56
2019-05-05T01:58:04.770Z,-2.49
2019-05-05T01:59:40.453Z,-2.44
2019-05-05T02:01:16.216Z,-2.46
2019-05-05T02:02:52.400Z,-2.40
2019-05-05T02:04:27.675Z,-2.33
2019-05-05T02:06:05.082Z,-2.41
2019-05-05T02:07:40.167Z,-2.36
2019-05-05T02:09:16.023Z,-2.43
2019-05-05T02:10:51.584Z,-2.50
2019-05-05T02:12:26.780Z,-2.53
2019-05-05T02:14:01.973Z,-2.60
2019-05-05T02:15:37.947Z,-2.55
2019-05-05T02:17:14.439Z,-2.53
2019-05-05T02:18:54.434Z,-2.44
2019-05-05T02:20:54.319Z,-2.43
2019-05-05T02:22:33.123Z,-2.40
2019-05-05T02:24:08.660Z,-2.39
2019-05-05T02:25:45.718Z,-2.37
2019-05-05T02:27:22.338Z,-2.38
2019-05-05T02:29:14.131Z,-2.44
2019-05-05T02:31:08.558Z,-2.53
2019-05-05T02:32:49.824Z,-2.59
2019-05-05T02:34:25.996Z,-2.65
2019-05-05T02:36:05.526Z,-2.70
2019-05-05T02:37:40.938Z,-2.74
2019-05-05T02:39:16.828Z,-2.77
2019-05-05T02:40:54.684Z,-2.78
2019-05-05T02:42:29.525Z,-2.79
2019-05-05T02:44:05.234Z,-2.76
2019-05-05T02:45:55.388Z,-2.70
2019-05-05T02:47:54.880Z,-2.73
2019-05-05T02:49:34.947Z,-2.64
2019-05-05T02:51:07.721Z,-2.64
2019-05-05T02:52:44.245Z,-2.69
2019-05-05T02:54:20.271Z,-2.70
2019-05-05T02:55:57.428Z,-2.70
2019-05-05T02:57:34.456Z,-2.61
2019-05-05T02:59:14.607Z,-2.69
2019-05-05T03:01:26.486Z,-2.68
2019-05-05T03:03:04.329Z,-2.62
2019-05-05T03:04:39.382Z,-2.64
2019-05-05T03:06:15.381Z,-2.62
2019-05-05T03:07:50.930Z,-2.59
2019-05-05T03:09:26.336Z,-2.60
2019-05-05T03:11:01.553Z,-2.60
2019-05-05T03:12:38.023Z,-2.60
2019-05-05T03:14:14.354Z,-2.64
2019-05-05T03:15:55.059Z,-2.61
2019-05-05T03:17:34.094Z,-2.62
2019-05-05T03:19:14.282Z,-2.60
2019-05-05T03:21:01.538Z,-2.56
2019-05-05T03:22:26.940Z,-2.65
2019-05-05T03:24:03.709Z,-2.59
2019-05-05T03:25:39.442Z,-2.60
2019-05-05T03:27:17.642Z,-2.64
2019-05-05T03:28:56.581Z,-2.62
2019-05-05T03:30:35.359Z,-2.58
2019-05-05T03:32:11.718Z,-2.57
2019-05-05T03:33:46.573Z,-2.56
2019-05-05T03:35:23.681Z,-2.52
2019-05-05T03:36:59.482Z,-2.49
2019-05-05T03:38:34.836Z,-2.51
2019-05-05T03:40:17.455Z,-2.45
2019-05-05T03:42:29.984Z,-2.30
2019-05-05T03:44:30.133Z,-2.21
2019-05-05T03:46:07.710Z,-2.17
2019-05-05T03:47:44.325Z,-2.12
2019-05-05T03:49:20.039Z,-2.11
2019-05-05T03:50:55.264Z,-2.12
2019-05-05T03:52:30.447Z,-2.05
2019-05-05T03:55:07.517Z,-2.05
2019-05-05T03:56:44.209Z,-1.98
2019-05-05T03:58:19.856Z,-1.95
2019-05-05T03:59:55.085Z,-1.94
2019-05-05T04:01:40.604Z,-1.93
2019-05-05T04:03:16.188Z,-1.90
2019-05-05T04:04:54.796Z,-1.81
2019-05-05T04:06:38.752Z,-1.69
2019-05-05T04:08:15.291Z,-1.59
2019-05-05T04:09:51.053Z,-1.52
2019-05-05T04:11:28.625Z,-1.52
2019-05-05T04:13:08.138Z,-1.47
2019-05-05T04:14:44.339Z,-1.31
2019-05-05T04:16:27.787Z,-1.29
2019-05-05T04:18:10.778Z,-1.28
2019-05-05T04:19:47.855Z,-1.24
2019-05-05T04:21:32.793Z,-1.19
2019-05-05T04:23:03.840Z,-1.12
2019-05-05T04:24:39.382Z,-1.03
2019-05-05T04:26:16.391Z,-0.94
2019-05-05T04:27:53.702Z,-0.93
2019-05-05T04:29:28.739Z,-0.88
2019-05-05T04:31:04.625Z,-0.81
2019-05-05T04:32:39.715Z,-0.72
2019-05-05T04:34:15.212Z,-0.74
2019-05-05T04:35:50.355Z,-0.73
2019-05-05T04:37:26.004Z,-0.58
2019-05-05T04:39:01.171Z,-0.53
2019-05-05T04:40:39.719Z,-0.47
2019-05-05T04:42:15.336Z,-0.42
2019-05-05T04:43:51.043Z,-0.32
2019-05-05T04:45:26.674Z,-0.26
2019-05-05T04:47:07.413Z,-0.26
2019-05-05T04:48:48.131Z,-0.22
2019-05-05T04:50:54.494Z,-0.18
2019-05-05T04:52:30.218Z,-0.12
2019-05-05T04:54:28.025Z,-0.07
2019-05-05T04:56:04.224Z,0.03
2019-05-05T04:57:40.345Z,0.14
2019-05-05T04:59:15.423Z,0.17
2019-05-05T05:00:51.187Z,0.21
2019-05-05T05:02:37.714Z,0.29
2019-05-05T05:04:34.960Z,0.36
2019-05-05T05:06:18.980Z,0.44
2019-05-05T05:07:55.393Z,0.49
2019-05-05T05:09:31.390Z,0.52
2019-05-05T05:11:06.482Z,0.55
2019-05-05T05:12:43.601Z,0.58
2019-05-05T05:14:28.024Z,0.62
2019-05-05T05:16:05.880Z,0.68
2019-05-05T05:17:56.435Z,0.70
2019-05-05T05:19:36.401Z,0.68
2019-05-05T05:21:14.762Z,0.69
2019-05-05T05:22:50.246Z,0.71
2019-05-05T05:24:29.105Z,0.71
2019-05-05T05:26:06.761Z,0.72
2019-05-05T05:27:44.167Z,0.76
2019-05-05T05:29:23.812Z,0.83
2019-05-05T05:31:17.457Z,0.79
2019-05-05T05:32:59.607Z,0.76
2019-05-05T05:34:35.186Z,0.62
2019-05-05T05:36:10.784Z,0.62
2019-05-05T05:37:46.189Z,0.74
2019-05-05T05:39:49.245Z,0.89
2019-05-05T05:41:43.578Z,1.05
2019-05-05T05:43:25.381Z,1.24
2019-05-05T05:45:20.017Z,1.41
2019-05-05T05:47:14.514Z,1.52
2019-05-05T05:49:08.763Z,1.33
2019-05-05T05:50:51.011Z,1.37
2019-05-05T05:52:26.302Z,1.39
2019-05-05T05:54:03.662Z,1.46
2019-05-05T05:55:39.285Z,1.39
2019-05-05T05:57:17.591Z,1.46
2019-05-05T05:58:54.257Z,1.48
2019-05-05T06:00:29.938Z,1.42
2019-05-05T06:02:12.265Z,1.46
2019-05-05T06:03:44.853Z,1.44
2019-05-05T06:05:21.033Z,1.52
2019-05-05T06:07:03.884Z,1.40
2019-05-05T06:08:36.730Z,1.54
2019-05-05T06:10:22.115Z,1.60
2019-05-05T06:11:49.441Z,1.55
2019-05-05T06:13:24.958Z,1.61
2019-05-05T06:15:00.468Z,1.61
2019-05-05T06:16:39.478Z,1.67
2019-05-05T06:18:13.775Z,1.72
2019-05-05T06:19:50.368Z,1.74
2019-05-05T06:21:30.138Z,1.76
2019-05-05T06:23:08.610Z,1.81
2019-05-05T06:24:47.211Z,1.90
2019-05-05T06:26:29.938Z,2.03
2019-05-05T06:28:05.858Z,2.15
2019-05-05T06:29:43.793Z,2.18
2019-05-05T06:31:19.295Z,2.27
2019-05-05T06:32:54.824Z,2.26
2019-05-05T06:34:30.125Z,2.16
2019-05-05T06:36:05.737Z,2.14
2019-05-05T06:37:56.516Z,2.25
2019-05-05T06:39:33.498Z,2.28
2019-05-05T06:41:34.198Z,2.26
2019-05-05T06:43:25.473Z,2.35
2019-05-05T06:45:14.339Z,2.42
2019-05-05T06:47:04.466Z,2.32
2019-05-05T06:48:41.043Z,2.40
2019-05-05T06:50:16.477Z,2.37
2019-05-05T06:51:56.249Z,2.44
2019-05-05T06:53:31.717Z,2.46
2019-05-05T06:55:07.032Z,2.33
2019-05-05T06:56:44.309Z,2.26
2019-05-05T06:58:24.182Z,2.21
2019-05-05T06:59:59.409Z,2.25
2019-05-05T07:01:37.587Z,2.32
2019-05-05T07:03:13.948Z,2.36
2019-05-05T07:04:52.182Z,2.43
2019-05-05T07:06:35.964Z,2.55
2019-05-05T07:08:13.935Z,2.68
2019-05-05T07:09:54.151Z,2.79
2019-05-05T07:11:31.495Z,2.73
2019-05-05T07:13:07.187Z,2.70
2019-05-05T07:14:45.426Z,2.83
2019-05-05T07:16:21.045Z,2.82
2019-05-05T07:17:58.254Z,2.76
2019-05-05T07:19:34.464Z,2.83
2019-05-05T07:21:10.781Z,2.76
2019-05-05T07:23:01.241Z,2.68
2019-05-05T07:24:31.141Z,2.69
2019-05-05T07:26:09.869Z,2.74
2019-05-05T07:27:45.201Z,2.74
2019-05-05T07:29:24.800Z,2.71
2019-05-05T07:31:00.080Z,2.69
2019-05-05T07:32:38.140Z,2.72
2019-05-05T07:34:14.390Z,2.78
2019-05-05T07:36:00.250Z,2.93
2019-05-05T07:37:31.573Z,2.79
2019-05-05T07:39:07.255Z,2.86
2019-05-05T07:40:44.018Z,2.81
2019-05-05T07:42:19.253Z,2.88
2019-05-05T07:43:55.102Z,2.99
2019-05-05T07:45:35.332Z,2.91
2019-05-05T07:47:10.756Z,2.96
2019-05-05T07:48:47.048Z,2.86
2019-05-05T07:50:29.478Z,2.91
2019-05-05T07:52:00.997Z,2.89
2019-05-05T07:53:35.909Z,2.91
2019-05-05T07:55:10.988Z,2.95
2019-05-05T07:56:46.326Z,2.94
2019-05-05T07:58:21.763Z,2.99
2019-05-05T07:59:56.919Z,2.98
2019-05-05T08:01:34.596Z,3.13
2019-05-05T08:03:14.397Z,3.24
2019-05-05T08:04:49.245Z,3.31
2019-05-05T08:06:24.653Z,3.29
2019-05-05T08:08:01.285Z,3.20
2019-05-05T08:09:36.434Z,2.99
2019-05-05T08:11:18.162Z,2.96
2019-05-05T08:12:48.740Z,2.92
2019-05-05T08:14:33.620Z,2.88
2019-05-05T08:16:15.756Z,2.92
2019-05-05T08:18:09.732Z,2.63
2019-05-05T08:20:04.651Z,2.62
2019-05-05T08:21:40.915Z,2.78
2019-05-05T08:23:38.432Z,2.74
2019-05-05T08:25:37.574Z,2.79
2019-05-05T08:27:34.258Z,2.83
2019-05-05T08:29:40.054Z,2.66
2019-05-05T08:31:24.969Z,2.72
2019-05-05T08:33:00.803Z,2.49
2019-05-05T08:34:38.627Z,2.16
2019-05-05T08:36:14.681Z,2.02
2019-05-05T08:37:51.071Z,1.83
2019-05-05T08:39:26.811Z,1.70
2019-05-05T08:41:04.419Z,1.61
2019-05-05T08:42:39.714Z,1.50
2019-05-05T08:44:18.976Z,1.48
2019-05-05T08:45:59.627Z,1.61
2019-05-05T08:47:35.395Z,1.78
2019-05-05T08:49:34.660Z,1.98
2019-05-05T08:51:09.473Z,2.26
2019-05-05T08:52:47.904Z,2.33
2019-05-05T08:54:25.022Z,2.53
2019-05-05T08:56:06.049Z,2.65
2019-05-05T08:57:41.629Z,2.61
2019-05-05T08:59:16.705Z,2.65
2019-05-05T09:00:57.820Z,2.78
2019-05-05T09:02:35.965Z,2.81
2019-05-05T09:04:14.185Z,2.92
2019-05-05T09:05:54.721Z,3.05
2019-05-05T09:07:30.175Z,3.12
2019-05-05T09:09:07.481Z,3.15
2019-05-05T09:10:52.288Z,3.05
2019-05-05T09:12:28.543Z,3.09
2019-05-05T09:14:10.302Z,3.28
2019-05-05T09:15:54.848Z,3.14
2019-05-05T09:17:30.221Z,3.17
2019-05-05T09:19:09.704Z,3.36
2019-05-05T09:20:44.835Z,3.65
2019-05-05T09:22:24.444Z,3.81
2019-05-05T09:24:21.083Z,4.05
2019-05-05T09:26:13.818Z,4.32
2019-05-05T09:27:56.087Z,4.35
2019-05-05T09:29:35.890Z,4.20
2019-05-05T09:31:11.331Z,4.12
2019-05-05T09:32:49.878Z,4.12
2019-05-05T09:34:26.938Z,3.86
2019-05-05T09:36:04.658Z,4.00
2019-05-05T09:37:41.362Z,3.92
2019-05-05T09:39:17.372Z,4.07
2019-05-05T09:40:54.438Z,4.33
2019-05-05T09:42:34.163Z,4.25
2019-05-05T09:44:09.462Z,4.36
2019-05-05T09:45:45.342Z,4.20
2019-05-05T09:47:24.079Z,4.16
2019-05-05T09:49:04.567Z,4.75
2019-05-05T09:50:44.644Z,4.77
2019-05-05T09:52:21.510Z,5.01
2019-05-05T09:54:10.712Z,5.52
2019-05-05T09:55:34.222Z,5.20
2019-05-05T09:57:11.223Z,5.28
2019-05-05T09:58:49.565Z,5.44
2019-05-05T10:00:38.285Z,6.02
2019-05-05T10:02:16.323Z,5.82
2019-05-05T10:04:13.726Z,6.29
2019-05-05T10:06:00.627Z,6.08
2019-05-05T10:07:43.891Z,5.98
2019-05-05T10:09:21.457Z,6.00
2019-05-05T10:11:04.133Z,6.62
2019-05-05T10:12:39.222Z,6.71
2019-05-05T10:14:17.159Z,6.26
2019-05-05T10:15:54.794Z,6.19
2019-05-05T10:17:33.148Z,6.65
2019-05-05T10:19:13.920Z,7.17
2019-05-05T10:20:51.233Z,7.15
2019-05-05T10:22:26.272Z,7.25
2019-05-05T10:24:27.141Z,7.02
2019-05-05T10:25:53.844Z,7.20
2019-05-05T10:27:41.534Z,7.37
2019-05-05T10:29:05.676Z,7.30
2019-05-05T10:30:41.391Z,7.68
2019-05-05T10:32:26.730Z,7.52
2019-05-05T10:34:05.016Z,7.61
2019-05-05T10:35:44.888Z,7.62
2019-05-05T10:37:20.151Z,7.06
2019-05-05T10:39:04.391Z,6.93
2019-05-05T10:40:40.615Z,8.02
2019-05-05T10:42:20.752Z,7.69
2019-05-05T10:43:58.525Z,8.55
2019-05-05T10:45:44.209Z,7.97
2019-05-05T10:47:33.549Z,7.94
2019-05-05T10:49:16.702Z,8.22
2019-05-05T10:50:54.205Z,8.50
2019-05-05T10:52:30.143Z,9.23
2019-05-05T10:54:08.145Z,8.91
2019-05-05T10:56:37.530Z,8.84
2019-05-05T10:58:16.965Z,7.35
2019-05-05T10:59:53.983Z,6.63
2019-05-05T11:01:34.090Z,6.24
2019-05-05T11:03:14.806Z,5.88
2019-05-05T11:04:50.929Z,6.09
2019-05-05T11:06:31.885Z,5.75
2019-05-05T11:08:07.037Z,5.81
2019-05-05T11:09:45.107Z,5.71
2019-05-05T11:11:26.957Z,5.99
2019-05-05T11:13:05.065Z,6.19
2019-05-05T11:14:46.007Z,5.97
2019-05-05T11:16:21.682Z,6.11
2019-05-05T11:18:04.045Z,6.38
2019-05-05T11:19:39.469Z,6.39
2019-05-05T11:21:17.629Z,6.71
2019-05-05T11:22:55.991Z,6.81
2019-05-05T11:24:36.345Z,6.72
2019-05-05T11:26:15.323Z,6.68
2019-05-05T11:28:07.370Z,6.84
2019-05-05T11:30:03.999Z,7.31
2019-05-05T11:31:45.590Z,7.38
2019-05-05T11:33:58.112Z,8.01
2019-05-05T11:35:49.342Z,8.35
2019-05-05T11:37:27.394Z,8.28
2019-05-05T11:39:05.294Z,8.37
2019-05-05T11:41:02.237Z,8.94
2019-05-05T11:42:36.320Z,8.82
2019-05-05T11:44:12.572Z,8.77
2019-05-05T11:45:47.863Z,8.33
2019-05-05T11:47:24.497Z,8.14
2019-05-05T11:49:00.514Z,7.70
2019-05-05T11:50:43.653Z,7.60
2019-05-05T11:52:26.120Z,7.61
2019-05-05T11:54:02.111Z,7.83
2019-05-05T11:55:39.073Z,8.39
2019-05-05T11:57:14.165Z,9.05
2019-05-05T11:58:49.505Z,9.78
2019-05-05T12:00:26.321Z,9.41
2019-05-05T12:02:08.728Z,9.52
2019-05-05T12:03:46.402Z,9.78
2019-05-05T12:05:21.792Z,9.43
2019-05-05T12:07:00.022Z,9.09
2019-05-05T12:08:46.040Z,8.62
2019-05-05T12:10:58.615Z,7.84
2019-05-05T12:12:33.819Z,6.94
2019-05-05T12:14:14.367Z,6.27
2019-05-05T12:15:53.885Z,5.95
2019-05-05T12:17:37.185Z,5.51
2019-05-05T12:19:13.712Z,5.19
2019-05-05T12:20:49.388Z,4.87
2019-05-05T12:22:44.681Z,4.81
2019-05-05T12:24:27.551Z,4.77
2019-05-05T12:26:29.231Z,4.62
2019-05-05T12:28:28.193Z,4.49
2019-05-05T12:30:14.592Z,4.36
2019-05-05T12:31:55.792Z,4.29
2019-05-05T12:33:51.700Z,4.47
2019-05-05T12:35:27.807Z,4.05
2019-05-05T12:37:07.008Z,4.15
2019-05-05T12:38:48.251Z,4.05
2019-05-05T12:40:24.633Z,4.33
2019-05-05T12:42:00.057Z,4.65
2019-05-05T12:43:35.396Z,5.01
2019-05-05T12:45:16.740Z,5.31
2019-05-05T12:47:09.499Z,5.53
2019-05-05T12:48:48.999Z,5.71
2019-05-05T12:50:24.638Z,6.00
2019-05-05T12:52:02.020Z,6.54
2019-05-05T12:53:39.681Z,7.22
2019-05-05T12:55:18.596Z,7.75
2019-05-05T12:56:53.947Z,7.66
2019-05-05T12:58:30.593Z,7.36
2019-05-05T13:00:08.295Z,7.69
2019-05-05T13:01:44.138Z,7.54
2019-05-05T13:03:19.629Z,7.48
2019-05-05T13:04:54.947Z,6.94
2019-05-05T13:06:34.702Z,6.93
2019-05-05T13:08:10.661Z,7.14
2019-05-05T13:09:48.567Z,7.03
2019-05-05T13:11:26.922Z,6.77
2019-05-05T13:13:06.275Z,7.01
2019-05-05T13:14:41.469Z,7.24
2019-05-05T13:16:22.419Z,7.10
2019-05-05T13:17:59.350Z,7.08
2019-05-05T13:19:43.889Z,7.18
2019-05-05T13:21:44.274Z,7.40
2019-05-05T13:23:34.049Z,7.41
2019-05-05T13:25:31.193Z,7.62
2019-05-05T13:27:19.545Z,7.29
2019-05-05T13:28:56.519Z,7.04
2019-05-05T13:30:34.279Z,6.99
2019-05-05T13:32:17.205Z,7.10
2019-05-05T13:33:54.417Z,7.15
2019-05-05T13:35:29.154Z,7.34
2019-05-05T13:37:10.602Z,7.67
2019-05-05T13:38:51.941Z,7.32
2019-05-05T13:40:26.578Z,7.20
2019-05-05T13:42:04.404Z,7.02
2019-05-05T13:43:42.261Z,7.06
2019-05-05T13:45:36.514Z,7.31
2019-05-05T13:47:11.700Z,7.80
2019-05-05T13:48:49.630Z,7.56
2019-05-05T13:50:34.133Z,7.82
2019-05-05T13:52:13.905Z,8.19
2019-05-05T13:53:51.137Z,8.51
2019-05-05T13:55:26.671Z,8.52
2019-05-05T13:57:03.695Z,8.34
2019-05-05T13:58:39.191Z,8.02
2019-05-05T14:00:18.480Z,8.08
2019-05-05T14:01:55.962Z,8.09
2019-05-05T14:03:34.163Z,8.00
2019-05-05T14:05:14.209Z,8.12
2019-05-05T14:06:54.318Z,8.21
2019-05-05T14:08:29.236Z,8.80
2019-05-05T14:10:09.449Z,8.60
2019-05-05T14:11:46.562Z,8.06
2019-05-05T14:13:21.746Z,8.00
2019-05-05T14:15:04.351Z,7.85
2019-05-05T14:16:45.637Z,7.69
2019-05-05T14:18:23.622Z,8.02
2019-05-05T14:20:07.923Z,7.90
2019-05-05T14:21:44.623Z,8.38
2019-05-05T14:23:24.003Z,8.39
2019-05-05T14:25:05.966Z,8.75
2019-05-05T14:26:43.707Z,8.36
2019-05-05T14:28:19.599Z,8.73
2019-05-05T14:30:16.125Z,8.78
2019-05-05T14:31:56.890Z,8.63
2019-05-05T14:33:50.499Z,8.85
2019-05-05T14:35:47.204Z,9.01
2019-05-05T14:37:42.074Z,8.71
2019-05-05T14:39:23.898Z,9.38
2019-05-05T14:41:00.605Z,9.51
2019-05-05T14:42:38.013Z,9.19
2019-05-05T14:44:18.136Z,9.18
2019-05-05T14:46:03.725Z,8.93
2019-05-05T14:47:46.105Z,9.48
2019-05-05T14:49:21.244Z,9.25
2019-05-05T14:50:56.410Z,8.93
2019-05-05T14:52:32.792Z,8.70
2019-05-05T14:54:14.841Z,8.78
2019-05-05T14:55:53.742Z,8.85
2019-05-05T14:57:33.617Z,8.46
2019-05-05T14:59:09.222Z,8.47
2019-05-05T15:00:44.673Z,8.79
2019-05-05T15:02:24.516Z,8.50
2019-05-05T15:04:04.090Z,8.16
2019-05-05T15:05:52.169Z,8.53
2019-05-05T15:07:45.431Z,8.37
2019-05-05T15:09:44.019Z,8.46
2019-05-05T15:11:41.869Z,8.55
2019-05-05T15:13:19.722Z,8.60
2019-05-05T15:14:59.969Z,8.52
2019-05-05T15:16:41.078Z,8.77
2019-05-05T15:18:16.664Z,8.67
2019-05-05T15:19:59.034Z,8.71
2019-05-05T15:21:41.433Z,8.73
2019-05-05T15:23:24.009Z,8.84
2019-05-05T15:25:11.408Z,8.50
2019-05-05T15:26:52.243Z,8.34
2019-05-05T15:28:33.658Z,8.42
2019-05-05T15:30:19.335Z,8.43
2019-05-05T15:32:04.358Z,8.40
2019-05-05T15:33:44.121Z,8.68
2019-05-05T15:35:23.542Z,8.71
2019-05-05T15:37:00.255Z,8.31
2019-05-05T15:38:35.952Z,8.00
2019-05-05T15:40:14.311Z,7.86
2019-05-05T15:41:57.253Z,8.14
2019-05-05T15:43:39.889Z,8.34
2019-05-05T15:45:17.008Z,8.53
2019-05-05T15:47:03.329Z,8.46
2019-05-05T15:48:43.808Z,8.25
2019-05-05T15:50:26.257Z,8.01
2019-05-05T15:52:07.063Z,8.05
2019-05-05T15:53:43.200Z,8.14
2019-05-05T15:55:18.831Z,8.07
2019-05-05T15:57:05.625Z,8.34
2019-05-05T15:58:43.513Z,8.26
2019-05-05T16:00:25.799Z,8.24
2019-05-05T16:02:14.781Z,7.83
2019-05-05T16:03:51.167Z,7.53
2019-05-05T16:05:29.763Z,7.17
2019-05-05T16:07:07.569Z,6.73
2019-05-05T16:08:44.623Z,6.53
2019-05-05T16:10:25.242Z,6.48
2019-05-05T16:12:00.470Z,6.40
2019-05-05T16:13:35.616Z,6.22
2019-05-05T16:15:34.364Z,6.21
2019-05-05T16:17:26.245Z,6.32
2019-05-05T16:19:27.867Z,6.06
2019-05-05T16:21:26.326Z,5.97
2019-05-05T16:23:15.477Z,6.04
2019-05-05T16:25:13.822Z,6.03
2019-05-05T16:26:50.474Z,5.93
2019-05-05T16:28:27.435Z,5.94
2019-05-05T16:30:14.486Z,5.97
2019-05-05T16:31:53.553Z,6.09
2019-05-05T16:33:26.958Z,6.16
2019-05-05T16:35:07.286Z,6.05
2019-05-05T16:36:44.080Z,6.13
2019-05-05T16:38:19.450Z,6.02
2019-05-05T16:39:54.792Z,5.86
2019-05-05T16:41:34.734Z,5.87
2019-05-05T16:43:09.936Z,5.76
2019-05-05T16:44:55.010Z,5.66
2019-05-05T16:46:34.404Z,5.76
2019-05-05T16:48:10.942Z,5.57
2019-05-05T16:49:47.872Z,5.55
2019-05-05T16:51:30.200Z,5.67
2019-05-05T16:53:11.102Z,5.69
2019-05-05T16:55:05.947Z,5.65
2019-05-05T16:56:44.167Z,5.67
2019-05-05T16:58:19.818Z,5.78
2019-05-05T16:59:56.444Z,5.76
2019-05-05T17:01:37.191Z,5.79
2019-05-05T17:03:19.867Z,5.73
2019-05-05T17:05:04.435Z,5.86
2019-05-05T17:06:45.493Z,5.82
2019-05-05T17:08:24.301Z,5.85
2019-05-05T17:09:59.829Z,5.75
2019-05-05T17:11:35.174Z,5.80
2019-05-05T17:13:19.355Z,5.94
2019-05-05T17:15:13.013Z,5.94
2019-05-05T17:17:14.375Z,6.13
2019-05-05T17:19:13.915Z,6.08
2019-05-05T17:20:54.690Z,6.07
2019-05-05T17:22:35.947Z,6.15
2019-05-05T17:24:24.465Z,6.26
2019-05-05T17:26:00.054Z,6.17
2019-05-05T17:27:47.865Z,6.21
2019-05-05T17:29:16.197Z,6.16
2019-05-05T17:30:58.255Z,6.16
2019-05-05T17:32:36.019Z,6.22
2019-05-05T17:34:24.665Z,6.06
2019-05-05T17:36:04.497Z,5.88
2019-05-05T17:37:39.208Z,5.80
2019-05-05T17:39:16.729Z,5.78
2019-05-05T17:41:10.934Z,5.89
2019-05-05T17:43:07.357Z,5.92
2019-05-05T17:45:14.382Z,5.95
2019-05-05T17:47:08.476Z,5.84
2019-05-05T17:49:18.922Z,5.78
2019-05-05T17:51:23.446Z,5.87
2019-05-05T17:53:14.911Z,5.79
2019-05-05T17:54:57.760Z,5.76
2019-05-05T17:56:33.684Z,5.82
2019-05-05T17:58:16.399Z,5.92
2019-05-05T17:59:53.602Z,6.06
2019-05-05T18:01:28.842Z,6.26
2019-05-05T18:03:14.227Z,6.28
2019-05-05T18:04:49.470Z,6.19
2019-05-05T18:06:38.712Z,6.40
2019-05-05T18:08:33.764Z,6.57
2019-05-05T18:10:26.859Z,6.59
2019-05-05T18:12:23.660Z,6.72
2019-05-05T18:14:07.745Z,6.53
2019-05-05T18:15:54.362Z,6.62
2019-05-05T18:17:33.986Z,6.57
2019-05-05T18:19:14.025Z,6.51
2019-05-05T18:20:57.285Z,6.38
2019-05-05T18:22:34.414Z,6.42
2019-05-05T18:24:13.735Z,6.26
2019-05-05T18:25:49.075Z,6.25
2019-05-05T18:27:26.865Z,6.09
2019-05-05T18:29:03.787Z,6.07
2019-05-05T18:30:40.175Z,5.95
2019-05-05T18:32:16.211Z,5.89
2019-05-05T18:34:04.640Z,6.00
2019-05-05T18:35:45.584Z,5.82
2019-05-05T18:37:21.027Z,5.72
2019-05-05T18:38:58.422Z,5.67
2019-05-05T18:40:36.128Z,5.60
2019-05-05T18:42:24.691Z,5.50
2019-05-05T18:44:10.396Z,5.44
2019-05-05T18:45:51.236Z,5.42
2019-05-05T18:47:48.331Z,5.32
2019-05-05T18:49:28.330Z,5.26
2019-05-05T18:51:08.615Z,5.19
2019-05-05T18:52:50.817Z,5.11
2019-05-05T18:54:27.164Z,5.07
2019-05-05T18:56:07.779Z,5.00
2019-05-05T18:57:47.263Z,5.01
2019-05-05T18:59:28.058Z,5.00
2019-05-05T19:01:30.063Z,4.95
2019-05-05T19:03:24.473Z,4.93
2019-05-05T19:05:18.209Z,4.81
2019-05-05T19:07:19.157Z,4.77
2019-05-05T19:08:57.227Z,4.68
2019-05-05T19:10:37.072Z,4.60
2019-05-05T19:12:15.959Z,4.52
2019-05-05T19:13:58.988Z,4.40
2019-05-05T19:15:38.048Z,4.36
2019-05-05T19:17:19.133Z,4.27
2019-05-05T19:18:57.552Z,4.23
2019-05-05T19:20:45.556Z,4.24
2019-05-05T19:22:23.785Z,4.25
2019-05-05T19:23:59.580Z,4.15
2019-05-05T19:25:35.772Z,4.12
2019-05-05T19:27:11.315Z,4.11
2019-05-05T19:28:50.291Z,4.10
2019-05-05T19:30:36.290Z,4.10
2019-05-05T19:32:17.622Z,4.11
2019-05-05T19:33:59.663Z,4.18
2019-05-05T19:35:46.661Z,4.17
2019-05-05T19:37:23.940Z,4.19
2019-05-05T19:39:09.607Z,4.10
2019-05-05T19:40:55.951Z,4.02
2019-05-05T19:42:30.581Z,3.91
2019-05-05T19:44:08.907Z,3.91
2019-05-05T19:45:44.773Z,3.92
2019-05-05T19:47:24.662Z,3.91
2019-05-05T19:49:18.312Z,3.84
2019-05-05T19:51:08.937Z,3.65
2019-05-05T19:52:53.697Z,3.64
2019-05-05T19:54:34.048Z,3.43
2019-05-05T19:56:16.774Z,3.31
2019-05-05T19:57:57.918Z,3.20
2019-05-05T20:00:00.849Z,3.02
2019-05-05T20:01:54.332Z,2.87
2019-05-05T20:03:40.675Z,2.69
2019-05-05T20:05:24.600Z,2.60
2019-05-05T20:06:59.830Z,2.64
2019-05-05T20:08:41.002Z,2.46
2019-05-05T20:10:14.694Z,2.37
2019-05-05T20:11:54.349Z,2.25
2019-05-05T20:13:26.805Z,2.18
2019-05-05T20:15:07.532Z,2.06
2019-05-05T20:17:06.438Z,2.00
2019-05-05T20:18:43.713Z,1.98
2019-05-05T20:20:23.803Z,1.95
2019-05-05T20:21:58.801Z,2.01
2019-05-05T20:23:35.701Z,1.90
2019-05-05T20:25:16.258Z,1.80
2019-05-05T20:26:53.279Z,1.86
2019-05-05T20:28:42.389Z,1.78
2019-05-05T20:30:24.755Z,1.69
2019-05-05T20:32:01.315Z,1.65
2019-05-05T20:33:47.708Z,1.64
2019-05-05T20:35:48.358Z,1.61
2019-05-05T20:37:34.418Z,1.57
2019-05-05T20:39:13.873Z,1.50
2019-05-05T20:41:08.372Z,1.53
2019-05-05T20:42:44.823Z,1.52
2019-05-05T20:44:24.683Z,1.39
2019-05-05T20:46:04.335Z,1.25
2019-05-05T20:47:43.852Z,1.14
2019-05-05T20:49:18.645Z,1.06
2019-05-05T20:50:55.418Z,0.99
2019-05-05T20:52:48.798Z,0.93
2019-05-05T20:54:29.779Z,0.88
2019-05-05T20:56:06.470Z,1.04
2019-05-05T20:57:46.218Z,1.07
2019-05-05T20:59:31.335Z,1.07
2019-05-05T21:01:07.811Z,1.12
2019-05-05T21:02:43.536Z,1.15
2019-05-05T21:04:19.249Z,1.09
2019-05-05T21:05:55.325Z,1.11
2019-05-05T21:07:34.484Z,1.03
2019-05-05T21:09:14.164Z,1.08
2019-05-05T21:10:53.748Z,1.04
2019-05-05T21:12:41.568Z,0.99
2019-05-05T21:14:08.019Z,0.93
2019-05-05T21:15:45.076Z,0.95
2019-05-05T21:17:20.961Z,0.94
2019-05-05T21:18:58.663Z,0.95
2019-05-05T21:20:39.147Z,0.94
2019-05-05T21:22:40.449Z,0.98
2019-05-05T21:24:20.864Z,0.94
2019-05-05T21:26:08.509Z,0.91
2019-05-05T21:27:43.775Z,0.93
2019-05-05T21:29:20.892Z,1.09
2019-05-05T21:30:58.039Z,0.95
2019-05-05T21:32:38.220Z,0.88
2019-05-05T21:34:14.005Z,0.92
2019-05-05T21:35:54.884Z,0.98
2019-05-05T21:37:35.747Z,0.99
2019-05-05T21:39:11.222Z,0.95
2019-05-05T21:40:47.240Z,0.91
2019-05-05T21:42:25.355Z,0.84
2019-05-05T21:44:08.530Z,0.78
2019-05-05T21:45:44.436Z,0.82
2019-05-05T21:47:29.469Z,0.82
2019-05-05T21:49:04.713Z,0.90
2019-05-05T21:50:45.194Z,0.87
2019-05-05T21:52:34.650Z,0.92
2019-05-05T21:54:34.909Z,0.86
2019-05-05T21:56:31.136Z,0.84
2019-05-05T21:58:29.575Z,0.93
2019-05-05T22:00:34.691Z,0.90
2019-05-05T22:02:15.271Z,0.88
2019-05-05T22:03:50.216Z,1.03
2019-05-05T22:05:28.498Z,1.00
2019-05-05T22:07:08.241Z,1.06
2019-05-05T22:08:49.421Z,1.12
2019-05-05T22:10:34.312Z,1.25
2019-05-05T22:12:09.965Z,1.27
2019-05-05T22:13:47.657Z,1.33
2019-05-05T22:15:22.852Z,1.48